sensor_id;sensor_type;location;lat;lon;timestamp;P1;durP1;ratioP1;P2;durP2;ratioP2
18507;SDS011;9383;50.928;12.116;2022-12-07T00:01:16;9.32;;;8.43;;
18507;SDS011;9383;50.928;12.116;2022-12-07T00:03:45;9.05;;;8.00;;
18507;SDS011;9383;50.928;12.116;2022-12-07T00:06:14;8.90;;;8.10;;
18507;SDS011;9383;50.928;12.116;2022-12-07T00:08:42;9.50;;;8.55;;
18507;SDS011;9383;50.928;12.116;2022-12-07T00:11:11;8.45;;;7.57;;
18507;SDS011;9383;50.928;12.116;2022-12-07T00:13:46;8.93;;;7.55;;
18507;SDS011;9383;50.928;12.116;2022-12-07T00:16:17;8.38;;;7.57;;
18507;SDS011;9383;50.928;12.116;2022-12-07T00:18:45;8.48;;;7.63;;
18507;SDS011;9383;50.928;12.116;2022-12-07T00:21:14;8.20;;;7.40;;
18507;SDS011;9383;50.928;12.116;2022-12-07T00:23:41;8.95;;;7.75;;
18507;SDS011;9383;50.928;12.116;2022-12-07T00:26:10;8.68;;;7.88;;
18507;SDS011;9383;50.928;12.116;2022-12-07T00:28:38;8.38;;;7.53;;
18507;SDS011;9383;50.928;12.116;2022-12-07T00:31:06;8.30;;;7.50;;
18507;SDS011;9383;50.928;12.116;2022-12-07T00:33:35;7.95;;;7.07;;
18507;SDS011;9383;50.928;12.116;2022-12-07T00:36:05;7.70;;;6.93;;
18507;SDS011;9383;50.928;12.116;2022-12-07T00:38:34;9.32;;;7.13;;
18507;SDS011;9383;50.928;12.116;2022-12-07T00:41:07;7.05;;;6.43;;
18507;SDS011;9383;50.928;12.116;2022-12-07T00:43:38;7.93;;;7.22;;
18507;SDS011;9383;50.928;12.116;2022-12-07T00:46:06;7.70;;;6.65;;
18507;SDS011;9383;50.928;12.116;2022-12-07T00:48:33;7.55;;;6.85;;
18507;SDS011;9383;50.928;12.116;2022-12-07T00:51:01;7.72;;;6.93;;
18507;SDS011;9383;50.928;12.116;2022-12-07T00:53:28;7.55;;;6.85;;
18507;SDS011;9383;50.928;12.116;2022-12-07T00:55:55;7.45;;;6.65;;
18507;SDS011;9383;50.928;12.116;2022-12-07T00:58:22;7.72;;;7.00;;
18507;SDS011;9383;50.928;12.116;2022-12-07T01:00:50;8.00;;;7.20;;
18507;SDS011;9383;50.928;12.116;2022-12-07T01:03:17;7.20;;;6.45;;
18507;SDS011;9383;50.928;12.116;2022-12-07T01:05:51;7.80;;;7.03;;
18507;SDS011;9383;50.928;12.116;2022-12-07T01:08:19;8.50;;;7.65;;
18507;SDS011;9383;50.928;12.116;2022-12-07T01:10:47;7.97;;;6.97;;
18507;SDS011;9383;50.928;12.116;2022-12-07T01:13:14;8.40;;;7.60;;
18507;SDS011;9383;50.928;12.116;2022-12-07T01:15:42;7.80;;;7.00;;
18507;SDS011;9383;50.928;12.116;2022-12-07T01:18:10;8.02;;;7.22;;
18507;SDS011;9383;50.928;12.116;2022-12-07T01:20:37;7.55;;;6.85;;
18507;SDS011;9383;50.928;12.116;2022-12-07T01:23:04;7.35;;;6.65;;
18507;SDS011;9383;50.928;12.116;2022-12-07T01:25:31;8.07;;;7.22;;
18507;SDS011;9383;50.928;12.116;2022-12-07T01:27:58;7.47;;;6.70;;
18507;SDS011;9383;50.928;12.116;2022-12-07T01:30:25;8.45;;;7.00;;
18507;SDS011;9383;50.928;12.116;2022-12-07T01:32:52;7.90;;;7.10;;
18507;SDS011;9383;50.928;12.116;2022-12-07T01:35:20;7.82;;;6.35;;
18507;SDS011;9383;50.928;12.116;2022-12-07T01:37:47;8.05;;;7.20;;
18507;SDS011;9383;50.928;12.116;2022-12-07T01:40:13;6.72;;;6.10;;
18507;SDS011;9383;50.928;12.116;2022-12-07T01:42:40;7.53;;;5.63;;
18507;SDS011;9383;50.928;12.116;2022-12-07T01:47:56;6.25;;;5.75;;
18507;SDS011;9383;50.928;12.116;2022-12-07T01:50:24;6.72;;;6.03;;
18507;SDS011;9383;50.928;12.116;2022-12-07T01:52:54;5.88;;;5.35;;
18507;SDS011;9383;50.928;12.116;2022-12-07T01:55:24;6.80;;;5.85;;
18507;SDS011;9383;50.928;12.116;2022-12-07T01:57:52;5.32;;;4.82;;
18507;SDS011;9383;50.928;12.116;2022-12-07T02:00:21;6.32;;;5.55;;
18507;SDS011;9383;50.928;12.116;2022-12-07T02:02:51;6.28;;;5.68;;
18507;SDS011;9383;50.928;12.116;2022-12-07T02:05:31;6.40;;;4.72;;
18507;SDS011;9383;50.928;12.116;2022-12-07T02:08:00;5.63;;;5.13;;
18507;SDS011;9383;50.928;12.116;2022-12-07T02:10:29;6.25;;;5.28;;
18507;SDS011;9383;50.928;12.116;2022-12-07T02:13:02;6.30;;;5.05;;
18507;SDS011;9383;50.928;12.116;2022-12-07T02:18:38;5.75;;;5.15;;
18507;SDS011;9383;50.928;12.116;2022-12-07T02:27:17;5.50;;;5.00;;
18507;SDS011;9383;50.928;12.116;2022-12-07T02:29:50;5.85;;;5.35;;
18507;SDS011;9383;50.928;12.116;2022-12-07T02:37:36;5.97;;;5.38;;
18507;SDS011;9383;50.928;12.116;2022-12-07T02:40:16;5.75;;;4.60;;
18507;SDS011;9383;50.928;12.116;2022-12-07T02:46:05;5.10;;;4.60;;
18507;SDS011;9383;50.928;12.116;2022-12-07T02:48:39;6.78;;;4.90;;
18507;SDS011;9383;50.928;12.116;2022-12-07T02:51:07;5.18;;;4.68;;
18507;SDS011;9383;50.928;12.116;2022-12-07T02:53:38;5.05;;;4.55;;
18507;SDS011;9383;50.928;12.116;2022-12-07T03:06:53;5.07;;;4.40;;
18507;SDS011;9383;50.928;12.116;2022-12-07T03:09:36;5.47;;;4.90;;
18507;SDS011;9383;50.928;12.116;2022-12-07T03:12:20;5.25;;;4.75;;
18507;SDS011;9383;50.928;12.116;2022-12-07T03:14:55;5.28;;;4.72;;
18507;SDS011;9383;50.928;12.116;2022-12-07T03:17:33;4.72;;;4.32;;
18507;SDS011;9383;50.928;12.116;2022-12-07T03:20:05;5.55;;;4.30;;
18507;SDS011;9383;50.928;12.116;2022-12-07T03:22:36;4.82;;;4.43;;
18507;SDS011;9383;50.928;12.116;2022-12-07T03:25:09;6.95;;;4.32;;
18507;SDS011;9383;50.928;12.116;2022-12-07T03:27:41;6.10;;;4.28;;
18507;SDS011;9383;50.928;12.116;2022-12-07T03:30:25;4.05;;;3.65;;
18507;SDS011;9383;50.928;12.116;2022-12-07T03:33:01;5.50;;;4.03;;
18507;SDS011;9383;50.928;12.116;2022-12-07T03:38:20;5.25;;;4.75;;
18507;SDS011;9383;50.928;12.116;2022-12-07T03:41:02;4.60;;;4.10;;
18507;SDS011;9383;50.928;12.116;2022-12-07T03:43:31;4.78;;;4.28;;
18507;SDS011;9383;50.928;12.116;2022-12-07T03:48:32;3.83;;;3.53;;
18507;SDS011;9383;50.928;12.116;2022-12-07T03:53:48;4.32;;;3.92;;
18507;SDS011;9383;50.928;12.116;2022-12-07T03:56:42;4.78;;;4.22;;
18507;SDS011;9383;50.928;12.116;2022-12-07T03:59:11;6.25;;;4.18;;
18507;SDS011;9383;50.928;12.116;2022-12-07T04:02:02;4.10;;;3.78;;
18507;SDS011;9383;50.928;12.116;2022-12-07T04:04:29;4.00;;;3.22;;
18507;SDS011;9383;50.928;12.116;2022-12-07T04:06:56;3.28;;;2.90;;
18507;SDS011;9383;50.928;12.116;2022-12-07T04:09:23;3.70;;;3.40;;
18507;SDS011;9383;50.928;12.116;2022-12-07T04:11:49;3.53;;;3.22;;
18507;SDS011;9383;50.928;12.116;2022-12-07T04:14:16;4.00;;;3.70;;
18507;SDS011;9383;50.928;12.116;2022-12-07T04:16:54;3.50;;;3.20;;
18507;SDS011;9383;50.928;12.116;2022-12-07T04:19:28;3.03;;;2.83;;
18507;SDS011;9383;50.928;12.116;2022-12-07T04:21:57;5.05;;;3.80;;
18507;SDS011;9383;50.928;12.116;2022-12-07T04:24:24;3.53;;;3.17;;
18507;SDS011;9383;50.928;12.116;2022-12-07T04:26:51;4.53;;;3.75;;
18507;SDS011;9383;50.928;12.116;2022-12-07T04:29:18;4.13;;;3.63;;
18507;SDS011;9383;50.928;12.116;2022-12-07T04:31:45;3.92;;;3.50;;
18507;SDS011;9383;50.928;12.116;2022-12-07T04:34:12;4.05;;;3.72;;
18507;SDS011;9383;50.928;12.116;2022-12-07T04:36:39;4.15;;;3.85;;
18507;SDS011;9383;50.928;12.116;2022-12-07T04:39:07;3.55;;;3.25;;
18507;SDS011;9383;50.928;12.116;2022-12-07T04:41:42;3.22;;;3.03;;
18507;SDS011;9383;50.928;12.116;2022-12-07T04:44:08;4.18;;;3.50;;
18507;SDS011;9383;50.928;12.116;2022-12-07T04:46:38;4.43;;;3.95;;
18507;SDS011;9383;50.928;12.116;2022-12-07T04:49:04;4.00;;;3.63;;
18507;SDS011;9383;50.928;12.116;2022-12-07T04:51:30;4.60;;;3.53;;
18507;SDS011;9383;50.928;12.116;2022-12-07T04:53:57;4.43;;;4.03;;
18507;SDS011;9383;50.928;12.116;2022-12-07T04:56:24;5.38;;;4.47;;
18507;SDS011;9383;50.928;12.116;2022-12-07T04:58:51;4.68;;;4.00;;
18507;SDS011;9383;50.928;12.116;2022-12-07T05:01:19;5.55;;;5.05;;
18507;SDS011;9383;50.928;12.116;2022-12-07T05:03:48;4.93;;;4.50;;
18507;SDS011;9383;50.928;12.116;2022-12-07T05:06:14;6.45;;;4.65;;
18507;SDS011;9383;50.928;12.116;2022-12-07T05:08:41;4.80;;;4.40;;
18507;SDS011;9383;50.928;12.116;2022-12-07T05:11:08;5.07;;;4.57;;
18507;SDS011;9383;50.928;12.116;2022-12-07T05:13:56;5.10;;;4.60;;
18507;SDS011;9383;50.928;12.116;2022-12-07T05:16:23;5.15;;;4.75;;
18507;SDS011;9383;50.928;12.116;2022-12-07T05:18:49;5.60;;;5.03;;
18507;SDS011;9383;50.928;12.116;2022-12-07T05:21:16;5.75;;;5.18;;
18507;SDS011;9383;50.928;12.116;2022-12-07T05:23:45;4.80;;;4.32;;
18507;SDS011;9383;50.928;12.116;2022-12-07T05:26:12;5.10;;;4.53;;
18507;SDS011;9383;50.928;12.116;2022-12-07T05:28:39;5.18;;;4.78;;
18507;SDS011;9383;50.928;12.116;2022-12-07T05:31:06;5.35;;;4.85;;
18507;SDS011;9383;50.928;12.116;2022-12-07T05:33:33;5.05;;;4.65;;
18507;SDS011;9383;50.928;12.116;2022-12-07T05:35:59;5.50;;;5.00;;
18507;SDS011;9383;50.928;12.116;2022-12-07T05:38:31;5.20;;;4.70;;
18507;SDS011;9383;50.928;12.116;2022-12-07T05:41:02;5.90;;;4.90;;
18507;SDS011;9383;50.928;12.116;2022-12-07T05:43:30;5.70;;;4.70;;
18507;SDS011;9383;50.928;12.116;2022-12-07T05:45:57;5.60;;;5.00;;
18507;SDS011;9383;50.928;12.116;2022-12-07T05:48:24;5.30;;;4.90;;
18507;SDS011;9383;50.928;12.116;2022-12-07T05:50:51;6.18;;;5.15;;
18507;SDS011;9383;50.928;12.116;2022-12-07T05:53:18;5.88;;;5.05;;
18507;SDS011;9383;50.928;12.116;2022-12-07T05:55:45;5.53;;;4.95;;
18507;SDS011;9383;50.928;12.116;2022-12-07T05:58:11;5.20;;;4.78;;
18507;SDS011;9383;50.928;12.116;2022-12-07T06:00:58;5.47;;;5.00;;
18507;SDS011;9383;50.928;12.116;2022-12-07T06:03:24;5.85;;;5.25;;
18507;SDS011;9383;50.928;12.116;2022-12-07T06:05:51;5.57;;;5.05;;
18507;SDS011;9383;50.928;12.116;2022-12-07T06:08:18;5.80;;;5.25;;
18507;SDS011;9383;50.928;12.116;2022-12-07T06:10:44;5.65;;;5.15;;
18507;SDS011;9383;50.928;12.116;2022-12-07T06:13:33;5.30;;;4.82;;
18507;SDS011;9383;50.928;12.116;2022-12-07T06:15:59;5.00;;;4.60;;
18507;SDS011;9383;50.928;12.116;2022-12-07T06:18:26;7.10;;;5.30;;
18507;SDS011;9383;50.928;12.116;2022-12-07T06:20:53;6.10;;;5.60;;
18507;SDS011;9383;50.928;12.116;2022-12-07T06:23:19;5.97;;;5.47;;
18507;SDS011;9383;50.928;12.116;2022-12-07T06:25:46;5.50;;;5.00;;
18507;SDS011;9383;50.928;12.116;2022-12-07T06:28:15;6.35;;;5.78;;
18507;SDS011;9383;50.928;12.116;2022-12-07T06:30:42;6.22;;;5.63;;
18507;SDS011;9383;50.928;12.116;2022-12-07T06:33:11;6.20;;;5.70;;
18507;SDS011;9383;50.928;12.116;2022-12-07T06:35:41;6.40;;;5.80;;
18507;SDS011;9383;50.928;12.116;2022-12-07T06:38:08;6.03;;;5.53;;
18507;SDS011;9383;50.928;12.116;2022-12-07T06:40:36;6.78;;;6.18;;
18507;SDS011;9383;50.928;12.116;2022-12-07T06:43:24;6.57;;;5.97;;
18507;SDS011;9383;50.928;12.116;2022-12-07T06:45:50;7.07;;;6.38;;
18507;SDS011;9383;50.928;12.116;2022-12-07T06:48:17;6.55;;;5.95;;
18507;SDS011;9383;50.928;12.116;2022-12-07T06:51:05;7.00;;;6.30;;
18507;SDS011;9383;50.928;12.116;2022-12-07T06:53:40;7.32;;;6.63;;
18507;SDS011;9383;50.928;12.116;2022-12-07T06:56:12;7.88;;;6.95;;
18507;SDS011;9383;50.928;12.116;2022-12-07T06:58:42;7.88;;;7.10;;
18507;SDS011;9383;50.928;12.116;2022-12-07T07:01:12;6.97;;;6.35;;
18507;SDS011;9383;50.928;12.116;2022-12-07T07:03:40;8.15;;;7.32;;
18507;SDS011;9383;50.928;12.116;2022-12-07T07:06:07;7.13;;;6.40;;
18507;SDS011;9383;50.928;12.116;2022-12-07T07:08:34;7.72;;;6.93;;
18507;SDS011;9383;50.928;12.116;2022-12-07T07:11:02;7.55;;;6.47;;
18507;SDS011;9383;50.928;12.116;2022-12-07T07:13:28;8.18;;;7.32;;
18507;SDS011;9383;50.928;12.116;2022-12-07T07:15:57;8.50;;;7.70;;
18507;SDS011;9383;50.928;12.116;2022-12-07T07:18:24;8.25;;;7.30;;
18507;SDS011;9383;50.928;12.116;2022-12-07T07:20:51;7.72;;;7.03;;
18507;SDS011;9383;50.928;12.116;2022-12-07T07:23:19;7.80;;;7.03;;
18507;SDS011;9383;50.928;12.116;2022-12-07T07:25:47;10.10;;;7.82;;
18507;SDS011;9383;50.928;12.116;2022-12-07T07:28:14;8.18;;;7.38;;
18507;SDS011;9383;50.928;12.116;2022-12-07T07:30:42;8.07;;;7.28;;
18507;SDS011;9383;50.928;12.116;2022-12-07T07:33:09;7.90;;;7.10;;
18507;SDS011;9383;50.928;12.116;2022-12-07T07:35:36;7.32;;;6.63;;
18507;SDS011;9383;50.928;12.116;2022-12-07T07:38:06;8.00;;;7.32;;
18507;SDS011;9383;50.928;12.116;2022-12-07T07:40:35;8.25;;;6.65;;
18507;SDS011;9383;50.928;12.116;2022-12-07T07:43:02;7.18;;;6.47;;
18507;SDS011;9383;50.928;12.116;2022-12-07T07:45:29;8.85;;;6.82;;
18507;SDS011;9383;50.928;12.116;2022-12-07T07:47:55;7.55;;;6.85;;
18507;SDS011;9383;50.928;12.116;2022-12-07T07:50:22;7.95;;;7.15;;
18507;SDS011;9383;50.928;12.116;2022-12-07T07:52:49;7.05;;;6.35;;
18507;SDS011;9383;50.928;12.116;2022-12-07T07:55:17;7.32;;;6.63;;
18507;SDS011;9383;50.928;12.116;2022-12-07T07:57:43;7.22;;;6.57;;
18507;SDS011;9383;50.928;12.116;2022-12-07T08:00:15;8.18;;;6.78;;
18507;SDS011;9383;50.928;12.116;2022-12-07T08:02:43;7.45;;;6.75;;
18507;SDS011;9383;50.928;12.116;2022-12-07T08:05:10;7.88;;;6.63;;
18507;SDS011;9383;50.928;12.116;2022-12-07T08:07:39;8.13;;;7.38;;
18507;SDS011;9383;50.928;12.116;2022-12-07T08:10:06;8.57;;;7.70;;
18507;SDS011;9383;50.928;12.116;2022-12-07T08:12:36;9.10;;;8.07;;
18507;SDS011;9383;50.928;12.116;2022-12-07T08:15:26;8.60;;;7.53;;
18507;SDS011;9383;50.928;12.116;2022-12-07T08:17:54;8.65;;;7.72;;
18507;SDS011;9383;50.928;12.116;2022-12-07T08:20:21;8.35;;;7.55;;
18507;SDS011;9383;50.928;12.116;2022-12-07T08:22:48;8.98;;;7.63;;
18507;SDS011;9383;50.928;12.116;2022-12-07T08:25:15;8.10;;;7.32;;
18507;SDS011;9383;50.928;12.116;2022-12-07T08:27:43;8.18;;;7.28;;
18507;SDS011;9383;50.928;12.116;2022-12-07T08:30:11;9.27;;;8.07;;
18507;SDS011;9383;50.928;12.116;2022-12-07T08:32:38;10.98;;;8.38;;
18507;SDS011;9383;50.928;12.116;2022-12-07T08:35:07;10.73;;;8.82;;
18507;SDS011;9383;50.928;12.116;2022-12-07T08:37:35;9.85;;;8.85;;
18507;SDS011;9383;50.928;12.116;2022-12-07T08:40:03;8.95;;;8.07;;
18507;SDS011;9383;50.928;12.116;2022-12-07T08:42:30;11.60;;;9.52;;
18507;SDS011;9383;50.928;12.116;2022-12-07T08:45:06;9.20;;;8.40;;
18507;SDS011;9383;50.928;12.116;2022-12-07T08:47:42;7.78;;;7.07;;
18507;SDS011;9383;50.928;12.116;2022-12-07T08:50:17;8.68;;;7.88;;
18507;SDS011;9383;50.928;12.116;2022-12-07T08:52:44;8.60;;;7.80;;
18507;SDS011;9383;50.928;12.116;2022-12-07T08:55:14;8.98;;;7.68;;
18507;SDS011;9383;50.928;12.116;2022-12-07T08:57:40;8.32;;;7.60;;
18507;SDS011;9383;50.928;12.116;2022-12-07T09:00:09;8.20;;;7.45;;
18507;SDS011;9383;50.928;12.116;2022-12-07T09:02:37;7.35;;;6.65;;
18507;SDS011;9383;50.928;12.116;2022-12-07T09:05:04;12.40;;;7.50;;
18507;SDS011;9383;50.928;12.116;2022-12-07T09:07:32;8.85;;;7.95;;
18507;SDS011;9383;50.928;12.116;2022-12-07T09:10:00;7.95;;;7.25;;
18507;SDS011;9383;50.928;12.116;2022-12-07T09:12:28;7.00;;;6.30;;
18507;SDS011;9383;50.928;12.116;2022-12-07T09:14:54;7.60;;;6.95;;
18507;SDS011;9383;50.928;12.116;2022-12-07T09:17:21;7.60;;;6.90;;
18507;SDS011;9383;50.928;12.116;2022-12-07T09:19:49;7.53;;;6.82;;
18507;SDS011;9383;50.928;12.116;2022-12-07T09:22:15;7.95;;;7.15;;
18507;SDS011;9383;50.928;12.116;2022-12-07T09:24:42;8.57;;;7.32;;
18507;SDS011;9383;50.928;12.116;2022-12-07T09:27:10;8.15;;;7.22;;
18507;SDS011;9383;50.928;12.116;2022-12-07T09:29:37;7.85;;;7.15;;
18507;SDS011;9383;50.928;12.116;2022-12-07T09:32:04;8.00;;;7.30;;
18507;SDS011;9383;50.928;12.116;2022-12-07T09:34:31;8.35;;;7.38;;
18507;SDS011;9383;50.928;12.116;2022-12-07T09:37:00;9.07;;;7.90;;
18507;SDS011;9383;50.928;12.116;2022-12-07T09:39:28;7.25;;;6.65;;
18507;SDS011;9383;50.928;12.116;2022-12-07T09:41:56;7.05;;;6.45;;
18507;SDS011;9383;50.928;12.116;2022-12-07T09:44:25;7.78;;;7.07;;
18507;SDS011;9383;50.928;12.116;2022-12-07T09:46:53;7.82;;;6.93;;
18507;SDS011;9383;50.928;12.116;2022-12-07T09:49:23;7.60;;;6.93;;
18507;SDS011;9383;50.928;12.116;2022-12-07T09:51:59;7.55;;;6.72;;
18507;SDS011;9383;50.928;12.116;2022-12-07T09:54:27;8.50;;;6.93;;
18507;SDS011;9383;50.928;12.116;2022-12-07T09:56:56;6.97;;;6.38;;
18507;SDS011;9383;50.928;12.116;2022-12-07T09:59:23;6.72;;;6.10;;
18507;SDS011;9383;50.928;12.116;2022-12-07T10:01:51;6.78;;;6.00;;
18507;SDS011;9383;50.928;12.116;2022-12-07T10:04:20;6.47;;;5.85;;
18507;SDS011;9383;50.928;12.116;2022-12-07T10:06:51;6.72;;;5.20;;
18507;SDS011;9383;50.928;12.116;2022-12-07T10:09:21;6.82;;;5.70;;
18507;SDS011;9383;50.928;12.116;2022-12-07T10:12:03;6.15;;;5.55;;
18507;SDS011;9383;50.928;12.116;2022-12-07T10:14:31;6.07;;;5.50;;
18507;SDS011;9383;50.928;12.116;2022-12-07T10:16:59;6.47;;;5.88;;
18507;SDS011;9383;50.928;12.116;2022-12-07T10:19:30;6.60;;;5.97;;
18507;SDS011;9383;50.928;12.116;2022-12-07T10:22:14;6.88;;;6.18;;
18507;SDS011;9383;50.928;12.116;2022-12-07T10:24:43;6.63;;;5.93;;
18507;SDS011;9383;50.928;12.116;2022-12-07T10:27:21;6.30;;;5.63;;
18507;SDS011;9383;50.928;12.116;2022-12-07T10:29:52;5.93;;;5.20;;
18507;SDS011;9383;50.928;12.116;2022-12-07T10:34:45;7.70;;;6.55;;
18507;SDS011;9383;50.928;12.116;2022-12-07T10:42:22;5.00;;;4.60;;
18507;SDS011;9383;50.928;12.116;2022-12-07T10:45:06;6.32;;;5.28;;
18507;SDS011;9383;50.928;12.116;2022-12-07T10:54:09;6.75;;;4.68;;
18507;SDS011;9383;50.928;12.116;2022-12-07T11:02:16;4.50;;;4.07;;
18507;SDS011;9383;50.928;12.116;2022-12-07T11:07:53;4.70;;;4.25;;
18507;SDS011;9383;50.928;12.116;2022-12-07T11:10:26;4.85;;;4.40;;
18507;SDS011;9383;50.928;12.116;2022-12-07T11:18:37;4.32;;;3.90;;
18507;SDS011;9383;50.928;12.116;2022-12-07T11:21:24;5.07;;;3.65;;
18507;SDS011;9383;50.928;12.116;2022-12-07T11:24:14;4.90;;;4.40;;
18507;SDS011;9383;50.928;12.116;2022-12-07T11:29:28;4.72;;;4.10;;
18507;SDS011;9383;50.928;12.116;2022-12-07T11:37:35;3.50;;;3.20;;
18507;SDS011;9383;50.928;12.116;2022-12-07T11:43:20;3.28;;;2.85;;
18507;SDS011;9383;50.928;12.116;2022-12-07T11:46:09;6.00;;;5.50;;
18507;SDS011;9383;50.928;12.116;2022-12-07T11:51:23;4.07;;;3.15;;
18507;SDS011;9383;50.928;12.116;2022-12-07T11:53:57;3.45;;;3.20;;
18507;SDS011;9383;50.928;12.116;2022-12-07T11:56:31;3.72;;;3.10;;
18507;SDS011;9383;50.928;12.116;2022-12-07T11:59:17;4.18;;;3.30;;
18507;SDS011;9383;50.928;12.116;2022-12-07T12:07:25;4.10;;;2.33;;
18507;SDS011;9383;50.928;12.116;2022-12-07T12:15:39;2.70;;;2.00;;
18507;SDS011;9383;50.928;12.116;2022-12-07T12:21:08;2.58;;;2.38;;
18507;SDS011;9383;50.928;12.116;2022-12-07T12:23:43;2.28;;;2.08;;
18507;SDS011;9383;50.928;12.116;2022-12-07T12:26:26;2.40;;;2.17;;
18507;SDS011;9383;50.928;12.116;2022-12-07T12:29:00;2.40;;;2.20;;
18507;SDS011;9383;50.928;12.116;2022-12-07T12:33:58;2.63;;;1.92;;
18507;SDS011;9383;50.928;12.116;2022-12-07T12:49:42;3.50;;;1.77;;
18507;SDS011;9383;50.928;12.116;2022-12-07T12:57:36;2.25;;;1.98;;
18507;SDS011;9383;50.928;12.116;2022-12-07T13:02:52;2.30;;;1.90;;
18507;SDS011;9383;50.928;12.116;2022-12-07T13:05:25;2.20;;;2.00;;
18507;SDS011;9383;50.928;12.116;2022-12-07T13:13:38;2.03;;;1.67;;
18507;SDS011;9383;50.928;12.116;2022-12-07T13:18:23;2.35;;;1.50;;
18507;SDS011;9383;50.928;12.116;2022-12-07T13:21:02;1.70;;;1.60;;
18507;SDS011;9383;50.928;12.116;2022-12-07T13:26:19;1.40;;;1.30;;
18507;SDS011;9383;50.928;12.116;2022-12-07T13:28:49;1.35;;;1.23;;
18507;SDS011;9383;50.928;12.116;2022-12-07T13:34:01;1.60;;;1.33;;
18507;SDS011;9383;50.928;12.116;2022-12-07T13:36:31;1.30;;;1.20;;
18507;SDS011;9383;50.928;12.116;2022-12-07T13:41:59;2.60;;;1.17;;
18507;SDS011;9383;50.928;12.116;2022-12-07T13:44:33;1.63;;;1.52;;
18507;SDS011;9383;50.928;12.116;2022-12-07T13:47:06;1.50;;;1.40;;
18507;SDS011;9383;50.928;12.116;2022-12-07T13:49:49;1.63;;;1.50;;
18507;SDS011;9383;50.928;12.116;2022-12-07T13:52:23;2.88;;;1.90;;
18507;SDS011;9383;50.928;12.116;2022-12-07T13:54:59;16.00;;;10.05;;
18507;SDS011;9383;50.928;12.116;2022-12-07T13:57:29;5.55;;;4.10;;
18507;SDS011;9383;50.928;12.116;2022-12-07T13:59:57;5.95;;;3.65;;
18507;SDS011;9383;50.928;12.116;2022-12-07T14:02:29;5.45;;;3.58;;
18507;SDS011;9383;50.928;12.116;2022-12-07T14:05:15;5.18;;;2.78;;
18507;SDS011;9383;50.928;12.116;2022-12-07T14:07:55;44.85;;;30.10;;
18507;SDS011;9383;50.928;12.116;2022-12-07T14:10:29;10.63;;;7.80;;
18507;SDS011;9383;50.928;12.116;2022-12-07T14:12:59;9.75;;;6.47;;
18507;SDS011;9383;50.928;12.116;2022-12-07T14:15:29;4.63;;;3.97;;
18507;SDS011;9383;50.928;12.116;2022-12-07T14:17:59;4.88;;;4.38;;
18507;SDS011;9383;50.928;12.116;2022-12-07T14:23:24;3.13;;;2.90;;
18507;SDS011;9383;50.928;12.116;2022-12-07T14:25:52;3.60;;;2.55;;
18507;SDS011;9383;50.928;12.116;2022-12-07T14:28:29;2.38;;;1.80;;
18507;SDS011;9383;50.928;12.116;2022-12-07T14:31:00;2.00;;;1.80;;
18507;SDS011;9383;50.928;12.116;2022-12-07T14:33:29;1.75;;;1.40;;
18507;SDS011;9383;50.928;12.116;2022-12-07T14:35:55;2.13;;;1.23;;
18507;SDS011;9383;50.928;12.116;2022-12-07T14:38:23;1.80;;;1.60;;
18507;SDS011;9383;50.928;12.116;2022-12-07T14:40:51;2.08;;;1.50;;
18507;SDS011;9383;50.928;12.116;2022-12-07T14:43:18;1.70;;;1.38;;
18507;SDS011;9383;50.928;12.116;2022-12-07T14:45:46;2.28;;;1.65;;
18507;SDS011;9383;50.928;12.116;2022-12-07T14:48:14;2.75;;;1.65;;
18507;SDS011;9383;50.928;12.116;2022-12-07T14:50:48;3.80;;;3.33;;
18507;SDS011;9383;50.928;12.116;2022-12-07T14:53:18;15.65;;;7.10;;
18507;SDS011;9383;50.928;12.116;2022-12-07T14:55:52;14.38;;;7.40;;
18507;SDS011;9383;50.928;12.116;2022-12-07T14:58:19;7.28;;;5.88;;
18507;SDS011;9383;50.928;12.116;2022-12-07T15:00:46;15.88;;;11.35;;
18507;SDS011;9383;50.928;12.116;2022-12-07T15:03:12;24.80;;;14.73;;
18507;SDS011;9383;50.928;12.116;2022-12-07T15:05:42;16.55;;;11.27;;
18507;SDS011;9383;50.928;12.116;2022-12-07T15:08:10;34.35;;;24.23;;
18507;SDS011;9383;50.928;12.116;2022-12-07T15:10:38;19.35;;;14.38;;
18507;SDS011;9383;50.928;12.116;2022-12-07T15:13:05;3.78;;;3.25;;
18507;SDS011;9383;50.928;12.116;2022-12-07T15:15:51;2.65;;;1.85;;
18507;SDS011;9383;50.928;12.116;2022-12-07T15:18:20;10.70;;;9.40;;
18507;SDS011;9383;50.928;12.116;2022-12-07T15:20:49;4.45;;;4.00;;
18507;SDS011;9383;50.928;12.116;2022-12-07T15:23:16;11.70;;;9.65;;
18507;SDS011;9383;50.928;12.116;2022-12-07T15:25:44;10.73;;;8.43;;
18507;SDS011;9383;50.928;12.116;2022-12-07T15:28:13;12.13;;;7.80;;
18507;SDS011;9383;50.928;12.116;2022-12-07T15:30:41;11.60;;;8.68;;
18507;SDS011;9383;50.928;12.116;2022-12-07T15:33:09;12.95;;;10.27;;
18507;SDS011;9383;50.928;12.116;2022-12-07T15:35:43;4.13;;;2.95;;
18507;SDS011;9383;50.928;12.116;2022-12-07T15:38:10;5.95;;;5.05;;
18507;SDS011;9383;50.928;12.116;2022-12-07T15:40:37;10.95;;;7.55;;
18507;SDS011;9383;50.928;12.116;2022-12-07T15:43:05;4.32;;;2.40;;
18507;SDS011;9383;50.928;12.116;2022-12-07T15:45:54;7.32;;;3.97;;
18507;SDS011;9383;50.928;12.116;2022-12-07T15:48:20;6.72;;;5.07;;
18507;SDS011;9383;50.928;12.116;2022-12-07T15:50:47;17.90;;;10.70;;
18507;SDS011;9383;50.928;12.116;2022-12-07T15:53:13;16.63;;;10.95;;
18507;SDS011;9383;50.928;12.116;2022-12-07T15:55:40;10.02;;;6.95;;
18507;SDS011;9383;50.928;12.116;2022-12-07T15:58:07;9.13;;;6.97;;
18507;SDS011;9383;50.928;12.116;2022-12-07T16:00:34;6.15;;;5.20;;
18507;SDS011;9383;50.928;12.116;2022-12-07T16:03:01;3.47;;;3.10;;
18507;SDS011;9383;50.928;12.116;2022-12-07T16:05:28;1.77;;;1.67;;
18507;SDS011;9383;50.928;12.116;2022-12-07T16:07:54;2.10;;;1.90;;
18507;SDS011;9383;50.928;12.116;2022-12-07T16:10:21;4.78;;;3.78;;
18507;SDS011;9383;50.928;12.116;2022-12-07T16:12:51;3.60;;;2.10;;
18507;SDS011;9383;50.928;12.116;2022-12-07T16:15:17;2.50;;;2.30;;
18507;SDS011;9383;50.928;12.116;2022-12-07T16:17:45;2.83;;;2.53;;
18507;SDS011;9383;50.928;12.116;2022-12-07T16:20:14;3.80;;;2.22;;
18507;SDS011;9383;50.928;12.116;2022-12-07T16:22:42;2.30;;;2.10;;
18507;SDS011;9383;50.928;12.116;2022-12-07T16:25:09;3.38;;;2.20;;
18507;SDS011;9383;50.928;12.116;2022-12-07T16:27:36;3.58;;;2.30;;
18507;SDS011;9383;50.928;12.116;2022-12-07T16:30:02;2.35;;;1.73;;
18507;SDS011;9383;50.928;12.116;2022-12-07T16:32:29;2.60;;;2.15;;
18507;SDS011;9383;50.928;12.116;2022-12-07T16:34:56;1.85;;;1.75;;
18507;SDS011;9383;50.928;12.116;2022-12-07T16:37:22;2.83;;;1.80;;
18507;SDS011;9383;50.928;12.116;2022-12-07T16:39:49;2.22;;;1.70;;
18507;SDS011;9383;50.928;12.116;2022-12-07T16:42:15;1.73;;;1.63;;
18507;SDS011;9383;50.928;12.116;2022-12-07T16:44:42;4.50;;;3.17;;
18507;SDS011;9383;50.928;12.116;2022-12-07T16:47:09;2.97;;;2.13;;
18507;SDS011;9383;50.928;12.116;2022-12-07T16:49:36;2.35;;;2.15;;
18507;SDS011;9383;50.928;12.116;2022-12-07T16:52:03;3.03;;;2.72;;
18507;SDS011;9383;50.928;12.116;2022-12-07T16:54:30;4.97;;;2.92;;
18507;SDS011;9383;50.928;12.116;2022-12-07T16:56:58;2.95;;;2.50;;
18507;SDS011;9383;50.928;12.116;2022-12-07T16:59:25;2.45;;;2.25;;
18507;SDS011;9383;50.928;12.116;2022-12-07T17:01:51;3.60;;;2.90;;
18507;SDS011;9383;50.928;12.116;2022-12-07T17:04:18;2.60;;;2.40;;
18507;SDS011;9383;50.928;12.116;2022-12-07T17:06:44;5.72;;;2.70;;
18507;SDS011;9383;50.928;12.116;2022-12-07T17:09:17;2.80;;;2.53;;
18507;SDS011;9383;50.928;12.116;2022-12-07T17:11:44;3.10;;;2.70;;
18507;SDS011;9383;50.928;12.116;2022-12-07T17:14:12;3.00;;;2.70;;
18507;SDS011;9383;50.928;12.116;2022-12-07T17:16:58;3.20;;;2.55;;
18507;SDS011;9383;50.928;12.116;2022-12-07T17:19:26;3.38;;;2.85;;
18507;SDS011;9383;50.928;12.116;2022-12-07T17:21:53;3.42;;;2.92;;